Time;durP1;ratioP1;P1;durP2;ratioP2;P2;SDS_P1;SDS_P2;PMS_P1;PMS_P2;Temp;Humidity;BMP_temperature;BMP_pressure;BME280_temperature;BME280_humidity;BME280_pressure;Samples;Min_cycle;Max_cycle;Signal;HPM_P1;HPM_P2
2023/01/26 00:00:25;;;;;;;128.57;44.10;;;-0.60;99.90;;;;;;5050890;28;20072;-50
2023/01/26 00:02:51;;;;;;;144.93;47.60;;;-0.60;99.90;;;;;;5050505;28;20041;-57
2023/01/26 00:05:16;;;;;;;137.27;46.20;;;-0.60;99.90;;;;;;5050535;28;20091;-50
2023/01/26 00:07:44;;;;;;;144.33;48.57;;;-0.60;99.90;;;;;;5050411;28;20538;-50
2023/01/26 00:10:10;;;;;;;148.90;47.38;;;-0.60;99.90;;;;;;5051268;28;20074;-51
2023/01/26 00:12:36;;;;;;;144.88;47.40;;;-0.60;99.90;;;;;;5050444;28;20494;-53
2023/01/26 00:15:01;;;;;;;128.97;44.70;;;-0.60;99.90;;;;;;5050404;28;20116;-52
2023/01/26 00:17:27;;;;;;;137.80;46.83;;;-0.60;99.90;;;;;;5050219;28;20498;-53
2023/01/26 00:19:55;;;;;;;141.07;48.10;;;-0.60;99.90;;;;;;5049872;28;20041;-51
2023/01/26 00:22:21;;;;;;;148.50;50.92;;;-0.60;99.90;;;;;;5050418;28;20488;-51
2023/01/26 00:24:47;;;;;;;;;;;-0.60;99.90;;;;;;5050132;28;20533;-51
2023/01/26 00:27:13;;;;;;;150.05;50.15;;;-0.60;99.90;;;;;;5050192;28;19936;-53
2023/01/26 00:29:38;;;;;;;145.13;48.37;;;-0.60;99.90;;;;;;5050660;28;20044;-51
2023/01/26 00:32:04;;;;;;;151.70;50.90;;;-0.60;99.90;;;;;;5050096;28;20121;-51
2023/01/26 00:34:30;;;;;;;132.88;44.85;;;-0.60;99.90;;;;;;5048975;28;20049;-50
2023/01/26 00:36:55;;;;;;;133.57;46.80;;;-0.60;99.90;;;;;;5049729;28;20030;-55
2023/01/26 00:39:21;;;;;;;139.40;47.27;;;-0.60;99.90;;;;;;5050475;28;20037;-54
2023/01/26 00:44:30;;;;;;;145.05;48.55;;;-0.60;99.90;;;;;;5040815;28;20045;-50
2023/01/26 00:46:56;;;;;;;156.87;47.63;;;-0.60;99.90;;;;;;5046662;28;20033;-53
2023/01/26 00:49:21;;;;;;;144.63;48.77;;;-0.60;99.90;;;;;;5045077;28;20029;-54
2023/01/26 00:51:47;;;;;;;154.90;49.03;;;-0.60;99.90;;;;;;5049721;28;20099;-54
2023/01/26 00:54:13;;;;;;;157.63;51.23;;;-0.60;99.90;;;;;;5048790;28;20090;-50
2023/01/26 00:56:38;;;;;;;152.90;53.00;;;-0.60;99.90;;;;;;5050304;28;20037;-51
2023/01/26 00:59:05;;;;;;;162.93;51.70;;;-0.60;99.90;;;;;;5049089;28;20106;-53
2023/01/26 01:01:31;;;;;;;154.02;49.28;;;-0.60;99.90;;;;;;5049106;28;20044;-51
2023/01/26 01:03:56;;;;;;;145.65;50.67;;;-0.60;99.90;;;;;;5045599;28;20087;-54
2023/01/26 01:06:22;;;;;;;150.20;50.23;;;-0.60;99.90;;;;;;5049581;28;20029;-55
2023/01/26 01:08:48;;;;;;;148.13;48.57;;;-0.60;99.90;;;;;;5049168;28;20045;-53
2023/01/26 01:11:13;;;;;;;144.53;50.47;;;-0.60;99.90;;;;;;5050210;28;20299;-50
2023/01/26 01:13:39;;;;;;;160.40;51.20;;;-0.60;99.90;;;;;;5048274;28;20409;-51
2023/01/26 01:16:10;;;;;;;145.90;48.70;;;-0.60;99.90;;;;;;5049239;28;20033;-54
2023/01/26 01:18:36;;;;;;;154.93;50.53;;;-0.60;99.90;;;;;;5047535;28;20041;-50
2023/01/26 01:21:10;;;;;;;164.43;52.83;;;-0.50;99.90;;;;;;5048828;28;20048;-52
2023/01/26 01:23:36;;;;;;;171.00;53.72;;;-0.50;99.90;;;;;;5048538;28;20053;-52
2023/01/26 01:26:03;;;;;;;157.20;51.63;;;-0.50;99.90;;;;;;5050162;28;20064;-50
2023/01/26 01:28:28;;;;;;;;;;;-0.50;99.90;;;;;;5049975;28;20043;-57
2023/01/26 01:30:54;;;;;;;150.00;51.00;;;-0.50;99.90;;;;;;5049174;28;19916;-51
2023/01/26 01:33:22;;;;;;;160.93;49.37;;;-0.50;99.90;;;;;;5048942;28;20414;-50
2023/01/26 01:35:59;;;;;;;137.25;46.30;;;-0.50;99.90;;;;;;5049688;28;20048;-54
2023/01/26 01:38:25;;;;;;;136.40;46.22;;;-0.50;99.90;;;;;;5049410;28;20037;-51
2023/01/26 01:40:52;;;;;;;145.77;50.45;;;-0.50;99.90;;;;;;5049611;28;20075;-55
2023/01/26 01:43:18;;;;;;;129.15;42.20;;;-0.50;99.90;;;;;;5047446;28;20056;-50
2023/01/26 01:45:45;;;;;;;148.10;50.78;;;-0.50;99.90;;;;;;5049963;28;20490;-52
2023/01/26 01:48:32;;;;;;;129.77;45.28;;;-0.50;99.90;;;;;;5052639;28;20037;-53
2023/01/26 01:51:04;;;;;;;144.27;46.20;;;-0.50;99.90;;;;;;5037352;28;20041;-51
2023/01/26 01:53:35;;;;;;;125.05;41.40;;;-0.50;99.90;;;;;;5054676;28;20076;-54
2023/01/26 01:56:05;;;;;;;128.15;46.25;;;-0.40;99.90;;;;;;5036083;28;20095;-50
2023/01/26 01:58:35;;;;;;;128.13;45.35;;;-0.40;99.90;;;;;;5035731;28;20072;-50
2023/01/26 02:01:00;;;;;;;130.27;41.83;;;-0.50;99.90;;;;;;5055041;28;20088;-57
2023/01/26 02:03:28;;;;;;;127.40;42.83;;;-0.40;99.90;;;;;;5054748;28;20433;-54
2023/01/26 02:06:13;;;;;;;131.20;45.22;;;-0.40;99.90;;;;;;5055251;28;20154;-52
2023/01/26 02:08:43;;;;;;;131.00;45.13;;;-0.40;99.90;;;;;;5055900;28;20045;-51
2023/01/26 02:11:33;;;;;;;123.45;41.80;;;-0.40;99.90;;;;;;5055599;28;20066;-50
2023/01/26 02:14:01;;;;;;;134.07;43.03;;;-0.40;99.90;;;;;;5055330;28;20048;-51
2023/01/26 02:16:26;;;;;;;139.07;44.33;;;-0.40;99.90;;;;;;5054733;28;20104;-53
2023/01/26 02:18:52;;;;;;;136.57;41.43;;;-0.40;99.90;;;;;;5055310;28;20140;-51
2023/01/26 02:21:20;;;;;;;145.32;47.75;;;-0.40;99.90;;;;;;5054539;28;20045;-57
2023/01/26 02:24:05;;;;;;;136.38;43.90;;;-0.40;99.90;;;;;;5054045;28;20045;-50
2023/01/26 02:26:33;;;;;;;124.40;40.38;;;-0.30;99.90;;;;;;5055613;28;20033;-51
2023/01/26 02:29:00;;;;;;;124.18;39.70;;;-0.40;99.90;;;;;;5054290;28;20597;-52
2023/01/26 02:31:26;;;;;;;120.70;43.65;;;-0.30;99.90;;;;;;5053978;28;20040;-52
2023/01/26 02:33:53;;;;;;;131.50;45.13;;;-0.30;99.90;;;;;;5054295;28;20120;-50
2023/01/26 02:36:28;;;;;;;136.02;43.25;;;-0.30;99.90;;;;;;5055497;28;20132;-51
2023/01/26 02:39:12;;;;;;;122.13;41.45;;;-0.30;99.90;;;;;;5055534;28;20055;-51
2023/01/26 02:44:23;;;;;;;105.85;37.70;;;-0.20;99.90;;;;;;5054687;28;20426;-53
2023/01/26 02:46:48;;;;;;;117.13;39.38;;;-0.20;99.90;;;;;;5055343;28;20037;-53
2023/01/26 02:51:58;;;;;;;95.53;34.17;;;-0.20;99.90;;;;;;5054337;28;20052;-52
2023/01/26 02:57:08;;;;;;;98.32;34.63;;;-0.10;99.90;;;;;;5054901;28;20057;-54
2023/01/26 02:59:34;;;;;;;96.37;32.47;;;-0.10;99.90;;;;;;5052635;28;20041;-51
2023/01/26 03:01:59;;;;;;;84.87;30.37;;;-0.10;99.90;;;;;;5051525;28;20045;-54
2023/01/26 03:04:25;;;;;;;90.00;29.77;;;-0.10;99.90;;;;;;5051845;28;20390;-51
2023/01/26 03:06:50;;;;;;;88.43;29.73;;;-0.10;99.90;;;;;;5051531;28;20176;-50
2023/01/26 03:09:16;;;;;;;78.20;29.60;;;-0.10;99.90;;;;;;5052115;28;20040;-51
2023/01/26 03:11:41;;;;;;;71.27;27.40;;;-0.10;99.90;;;;;;5050420;28;20115;-55
2023/01/26 03:14:12;;;;;;;74.40;26.13;;;-0.10;99.90;;;;;;5051282;28;20041;-50
2023/01/26 03:16:38;;;;;;;76.72;26.50;;;-0.10;99.90;;;;;;5051800;28;20142;-51
2023/01/26 03:29:46;;;;;;;55.63;19.50;;;0.00;99.90;;;;;;5052689;28;20045;-53
2023/01/26 03:32:12;;;;;;;54.93;20.23;;;0.00;99.90;;;;;;5051357;28;20348;-50
2023/01/26 03:34:38;;;;;;;57.90;22.03;;;0.10;99.90;;;;;;5051382;28;20338;-50
2023/01/26 03:37:04;;;;;;;56.43;19.77;;;0.10;99.90;;;;;;5051307;28;20033;-50
2023/01/26 03:58:45;;;;;;;46.03;17.35;;;0.10;99.90;;;;;;5050023;28;20077;-51
2023/01/26 04:01:17;;;;;;;47.80;19.33;;;0.20;99.90;;;;;;5051205;28;20072;-54
2023/01/26 04:09:11;;;;;;;48.40;17.95;;;0.20;99.90;;;;;;5049721;28;20446;-55
2023/01/26 04:11:37;;;;;;;40.60;16.47;;;0.20;99.90;;;;;;5050513;28;20037;-50
2023/01/26 04:22:15;;;;;;;44.35;15.40;;;0.20;99.90;;;;;;5050633;28;20438;-50
2023/01/26 04:24:41;;;;;;;38.30;13.60;;;0.30;99.90;;;;;;5049505;28;20029;-53
2023/01/26 04:27:06;;;;;;;34.87;14.13;;;0.20;99.90;;;;;;5050431;28;20517;-51
2023/01/26 04:29:32;;;;;;;35.63;13.67;;;0.20;99.90;;;;;;5049995;28;20418;-55
2023/01/26 04:31:57;;;;;;;35.97;13.97;;;0.20;99.90;;;;;;5050148;28;20122;-53
2023/01/26 04:34:23;;;;;;;37.27;14.60;;;0.30;99.90;;;;;;5049427;28;20055;-53
2023/01/26 04:36:48;;;;;;;45.77;17.33;;;0.30;99.90;;;;;;5050648;28;20037;-51
2023/01/26 04:39:14;;;;;;;33.50;14.03;;;0.30;99.90;;;;;;5050064;28;21323;-54
2023/01/26 04:41:40;;;;;;;35.43;13.40;;;0.30;99.90;;;;;;5050035;28;20073;-51
2023/01/26 04:44:05;;;;;;;36.87;14.60;;;0.30;99.90;;;;;;5049689;28;20033;-54
2023/01/26 04:46:32;;;;;;;37.40;13.83;;;0.30;99.90;;;;;;5049408;28;20052;-53
2023/01/26 04:48:57;;;;;;;40.40;13.35;;;0.30;99.90;;;;;;5049832;28;20049;-50
2023/01/26 04:51:23;;;;;;;32.70;13.17;;;0.30;99.90;;;;;;5049537;28;20703;-53
2023/01/26 04:53:49;;;;;;;36.85;14.77;;;0.30;99.90;;;;;;5048797;28;20082;-53
2023/01/26 04:56:20;;;;;;;33.13;12.95;;;0.40;99.90;;;;;;5049503;28;20120;-51
2023/01/26 04:58:46;;;;;;;28.23;13.40;;;0.40;99.90;;;;;;5048732;28;20062;-54
2023/01/26 05:01:11;;;;;;;29.60;13.60;;;0.40;99.90;;;;;;5049152;28;20421;-51
2023/01/26 05:03:37;;;;;;;35.97;13.50;;;0.40;99.90;;;;;;5048941;28;20037;-54
2023/01/26 05:06:03;;;;;;;31.73;13.47;;;0.40;99.90;;;;;;5049948;28;20037;-51
2023/01/26 05:08:28;;;;;;;34.00;14.27;;;0.40;99.90;;;;;;5049465;28;20043;-53
2023/01/26 05:10:54;;;;;;;34.60;13.80;;;0.40;99.90;;;;;;5049828;28;20497;-51
2023/01/26 05:13:20;;;;;;;32.43;11.63;;;0.40;99.90;;;;;;5048853;28;20072;-51
2023/01/26 05:15:46;;;;;;;27.80;10.27;;;0.40;99.90;;;;;;5049168;28;20033;-54
2023/01/26 05:18:11;;;;;;;23.95;11.27;;;0.50;99.90;;;;;;5049779;28;20342;-52
2023/01/26 05:20:37;;;;;;;25.83;10.20;;;0.50;99.90;;;;;;5049416;28;20116;-51
2023/01/26 05:23:03;;;;;;;30.92;11.35;;;0.50;99.90;;;;;;5047953;28;20048;-51
2023/01/26 05:25:28;;;;;;;30.93;11.73;;;0.50;99.90;;;;;;5049456;28;20037;-51
2023/01/26 05:27:54;;;;;;;28.30;10.67;;;0.50;99.90;;;;;;5049351;28;20548;-54
2023/01/26 05:30:20;;;;;;;24.93;10.40;;;0.50;99.90;;;;;;5048928;28;20513;-55
2023/01/26 05:32:45;;;;;;;24.55;10.00;;;0.50;99.90;;;;;;5049252;28;20056;-50
2023/01/26 05:35:11;;;;;;;29.00;10.43;;;0.50;99.90;;;;;;5049197;28;20482;-51
2023/01/26 05:37:37;;;;;;;27.10;10.90;;;0.50;99.90;;;;;;5048815;28;20506;-52
2023/01/26 05:40:03;;;;;;;22.92;10.40;;;0.50;99.90;;;;;;5049574;28;20055;-52
2023/01/26 05:42:29;;;;;;;26.52;10.45;;;0.50;99.90;;;;;;5049241;28;20036;-51
2023/01/26 05:44:54;;;;;;;23.98;10.55;;;0.50;99.90;;;;;;5048112;28;20091;-51
2023/01/26 05:47:20;;;;;;;23.07;9.07;;;0.50;99.90;;;;;;5049427;28;20117;-50
2023/01/26 05:49:46;;;;;;;27.40;10.17;;;0.50;99.90;;;;;;5049850;28;20043;-51
2023/01/26 05:52:15;;;;;;;25.87;10.67;;;0.50;99.90;;;;;;5049171;28;20045;-50
2023/01/26 05:54:41;;;;;;;22.42;8.40;;;0.50;99.90;;;;;;5049153;28;20279;-53
2023/01/26 05:57:08;;;;;;;24.02;8.88;;;0.50;99.90;;;;;;5048896;28;20176;-51
2023/01/26 05:59:33;;;;;;;;;;;0.50;99.90;;;;;;5049569;28;20047;-51
2023/01/26 06:02:00;;;;;;;19.42;7.93;;;0.50;99.90;;;;;;5048359;28;19921;-53
2023/01/26 06:04:26;;;;;;;19.98;8.38;;;0.50;99.90;;;;;;5048877;28;20120;-52
2023/01/26 06:06:53;;;;;;;17.90;9.63;;;0.50;99.90;;;;;;5048999;28;20519;-53
2023/01/26 06:09:19;;;;;;;19.92;8.32;;;0.50;99.90;;;;;;5049203;28;20099;-50
2023/01/26 06:11:45;;;;;;;20.15;8.15;;;0.50;99.90;;;;;;5047866;28;20052;-53
2023/01/26 06:14:11;;;;;;;26.02;10.82;;;0.50;99.90;;;;;;5047415;28;20037;-51
2023/01/26 06:16:36;;;;;;;24.80;9.23;;;0.50;99.90;;;;;;5049387;28;20116;-50
2023/01/26 06:19:02;;;;;;;27.40;9.57;;;0.60;99.90;;;;;;5048568;28;20116;-50
2023/01/26 06:21:29;;;;;;;19.87;9.37;;;0.50;99.90;;;;;;5049170;28;20041;-53
2023/01/26 06:23:55;;;;;;;22.38;10.38;;;0.60;99.90;;;;;;5047571;28;20056;-50
2023/01/26 06:26:20;;;;;;;21.60;8.87;;;0.60;99.90;;;;;;5049138;28;20406;-52
2023/01/26 06:28:46;;;;;;;19.63;9.97;;;0.60;99.90;;;;;;5048146;28;20037;-52
2023/01/26 06:31:11;;;;;;;27.60;10.67;;;0.60;99.90;;;;;;5048880;28;20055;-52
2023/01/26 06:33:37;;;;;;;26.80;10.40;;;0.60;99.90;;;;;;5048826;28;20087;-50
2023/01/26 06:36:05;;;;;;;29.50;10.02;;;0.60;99.90;;;;;;5052333;28;20407;-50
2023/01/26 06:38:31;;;;;;;25.45;10.13;;;0.60;99.90;;;;;;5052258;28;20045;-52
2023/01/26 06:41:04;;;;;;;25.98;10.05;;;0.60;99.90;;;;;;5052453;28;20041;-53
2023/01/26 06:43:31;;;;;;;23.33;9.88;;;0.60;99.90;;;;;;5051565;28;20041;-52
2023/01/26 06:45:57;;;;;;;28.10;11.07;;;0.60;99.90;;;;;;5052840;28;20116;-55
2023/01/26 06:48:26;;;;;;;;;;;0.60;99.90;;;;;;5052365;28;20037;-51
2023/01/26 06:50:56;;;;;;;26.98;9.20;;;0.60;99.90;;;;;;5033142;28;20352;-54
2023/01/26 06:53:40;;;;;;;25.20;10.48;;;0.60;99.90;;;;;;5031599;28;20439;-51
2023/01/26 06:56:06;;;;;;;29.48;11.05;;;0.60;99.90;;;;;;5048177;28;20033;-51
2023/01/26 06:58:31;;;;;;;29.17;10.63;;;0.70;99.90;;;;;;5031852;28;20107;-53
2023/01/26 07:00:57;;;;;;;31.53;10.93;;;0.60;99.90;;;;;;5051613;28;20059;-52
2023/01/26 07:03:23;;;;;;;27.75;11.82;;;0.70;99.90;;;;;;5051010;28;20045;-53
2023/01/26 07:05:48;;;;;;;35.80;12.85;;;0.60;99.90;;;;;;5049054;28;20033;-53
2023/01/26 07:08:14;;;;;;;36.17;12.17;;;0.70;99.90;;;;;;5042639;28;20084;-51
2023/01/26 07:10:40;;;;;;;35.27;12.40;;;0.70;99.90;;;;;;5048005;28;20041;-50
2023/01/26 07:13:05;;;;;;;31.13;11.37;;;0.70;99.90;;;;;;5051171;28;20041;-52
2023/01/26 07:15:31;;;;;;;47.92;13.55;;;0.70;99.90;;;;;;5051309;28;20052;-53
2023/01/26 07:17:57;;;;;;;46.53;14.27;;;0.70;99.90;;;;;;5050615;28;20513;-51
2023/01/26 07:20:23;;;;;;;38.83;13.02;;;0.70;99.90;;;;;;5048042;28;20501;-54
2023/01/26 07:22:50;;;;;;;43.55;14.35;;;0.70;99.90;;;;;;5051368;28;20116;-54
2023/01/26 07:25:16;;;;;;;61.55;15.65;;;0.70;99.90;;;;;;5043113;28;20115;-51
2023/01/26 07:27:42;;;;;;;53.30;15.23;;;0.70;99.90;;;;;;5031631;28;20033;-50
2023/01/26 07:30:11;;;;;;;41.43;14.60;;;0.70;99.90;;;;;;5049840;28;20045;-53
2023/01/26 07:32:36;;;;;;;58.05;15.98;;;0.70;99.90;;;;;;5051500;28;20120;-51
2023/01/26 07:35:03;;;;;;;64.10;15.90;;;0.70;99.90;;;;;;5051188;28;20470;-52
2023/01/26 07:37:29;;;;;;;46.47;15.30;;;0.70;99.90;;;;;;5051067;28;20037;-50
2023/01/26 07:39:55;;;;;;;63.83;17.90;;;0.70;99.90;;;;;;5051996;28;20033;-50
2023/01/26 07:42:21;;;;;;;74.53;18.30;;;0.70;99.90;;;;;;5051506;28;20045;-50
2023/01/26 07:44:47;;;;;;;;;;;0.70;99.90;;;;;;5050654;28;20496;-50
2023/01/26 07:47:13;;;;;;;61.83;18.95;;;0.80;99.90;;;;;;5050399;28;19916;-51
2023/01/26 07:49:39;;;;;;;81.35;18.77;;;0.80;99.90;;;;;;5051341;28;20047;-51
2023/01/26 07:52:05;;;;;;;86.60;20.33;;;0.80;99.90;;;;;;5050455;28;20037;-53
2023/01/26 07:54:31;;;;;;;85.20;20.42;;;0.80;99.90;;;;;;5049072;28;20102;-51
2023/01/26 07:56:57;;;;;;;122.67;23.83;;;0.80;99.90;;;;;;5050833;28;20040;-53
2023/01/26 07:59:23;;;;;;;77.35;19.55;;;0.80;99.90;;;;;;5051541;28;20036;-54
2023/01/26 08:01:49;;;;;;;82.05;21.27;;;0.80;99.90;;;;;;5050517;28;20048;-56
2023/01/26 08:04:15;;;;;;;;;;;0.80;99.90;;;;;;5050224;28;20025;-54
2023/01/26 08:06:40;;;;;;;93.97;22.15;;;0.90;99.90;;;;;;5050356;28;20389;-54
2023/01/26 08:09:06;;;;;;;101.27;22.00;;;0.90;99.90;;;;;;5050783;28;20091;-52
2023/01/26 08:11:32;;;;;;;108.20;23.63;;;0.90;99.90;;;;;;5049746;28;20500;-54
2023/01/26 08:13:58;;;;;;;92.63;23.57;;;0.80;99.90;;;;;;5040974;28;20378;-53
2023/01/26 08:16:23;;;;;;;137.90;26.53;;;0.90;99.90;;;;;;5050602;28;20362;-54
2023/01/26 08:18:49;;;;;;;75.60;22.70;;;0.90;99.90;;;;;;5049921;28;20037;-55
2023/01/26 08:21:17;;;;;;;90.32;23.90;;;0.90;99.90;;;;;;5050909;28;20049;-55
2023/01/26 08:23:47;;;;;;;83.65;23.95;;;1.00;99.90;;;;;;5049062;28;20578;-54
2023/01/26 08:26:12;;;;;;;111.45;26.48;;;0.90;99.90;;;;;;5050959;28;20047;-55
2023/01/26 08:28:39;;;;;;;140.10;28.63;;;1.00;99.90;;;;;;5049766;28;20037;-53
2023/01/26 08:31:07;;;;;;;105.47;27.60;;;1.00;99.90;;;;;;5051104;28;20037;-52
2023/01/26 08:33:33;;;;;;;128.32;29.85;;;1.00;99.90;;;;;;5048062;28;20398;-52
2023/01/26 08:36:09;;;;;;;139.63;30.95;;;1.00;99.90;;;;;;5050060;28;20128;-53
2023/01/26 08:38:35;;;;;;;100.65;25.90;;;1.00;99.90;;;;;;5050061;28;20052;-52
2023/01/26 08:41:01;;;;;;;120.80;29.38;;;1.10;99.90;;;;;;5050558;28;20466;-57
2023/01/26 08:43:27;;;;;;;;;;;1.10;99.90;;;;;;5049691;28;20029;-52
2023/01/26 08:45:53;;;;;;;84.43;25.75;;;1.10;99.90;;;;;;5049990;28;19917;-54
2023/01/26 08:48:18;;;;;;;90.93;25.77;;;1.20;99.90;;;;;;5049537;28;20374;-53
2023/01/26 08:50:44;;;;;;;102.00;27.33;;;1.20;99.90;;;;;;5049751;28;20037;-54
2023/01/26 08:53:10;;;;;;;142.05;32.55;;;1.20;99.90;;;;;;5047708;28;21985;-55
2023/01/26 08:55:36;;;;;;;153.03;32.37;;;1.30;99.90;;;;;;5048929;28;20179;-54
2023/01/26 08:58:02;;;;;;;88.78;27.70;;;1.30;99.90;;;;;;5046780;28;20029;-52
2023/01/26 09:00:28;;;;;;;100.50;28.50;;;1.30;99.90;;;;;;5049018;28;20095;-56
2023/01/26 09:03:02;;;;;;;102.22;28.48;;;1.40;99.90;;;;;;5046586;28;20037;-55
2023/01/26 09:05:31;;;;;;;92.18;24.98;;;1.40;99.90;;;;;;5048883;28;20037;-54
2023/01/26 09:07:57;;;;;;;106.60;28.98;;;1.40;99.90;;;;;;5048801;28;20055;-52
2023/01/26 09:10:23;;;;;;;136.23;31.43;;;1.40;99.90;;;;;;5049213;28;20033;-52
2023/01/26 09:12:48;;;;;;;86.28;28.05;;;1.40;99.90;;;;;;5038580;28;20781;-55
2023/01/26 09:15:14;;;;;;;122.73;26.90;;;1.50;99.90;;;;;;5031325;28;20070;-55
2023/01/26 09:17:41;;;;;;;128.87;28.60;;;1.50;99.90;;;;;;5048380;28;20059;-52
2023/01/26 09:20:08;;;;;;;110.65;27.58;;;1.50;99.90;;;;;;5046928;28;20047;-55
2023/01/26 09:22:34;;;;;;;205.50;36.53;;;1.50;99.90;;;;;;5049062;28;20037;-52
2023/01/26 09:25:00;;;;;;;85.93;26.57;;;1.60;99.90;;;;;;5048121;28;20044;-54
2023/01/26 09:27:26;;;;;;;93.72;23.05;;;1.60;99.90;;;;;;5049173;28;20037;-52
2023/01/26 09:29:52;;;;;;;105.38;22.02;;;1.60;99.90;;;;;;5048850;28;20556;-55
2023/01/26 09:32:18;;;;;;;141.38;26.35;;;1.60;99.90;;;;;;5049512;28;20055;-55
2023/01/26 09:34:44;;;;;;;144.57;19.55;;;1.60;99.90;;;;;;5047685;28;20037;-54
2023/01/26 09:37:09;;;;;;;68.53;15.77;;;1.60;99.90;;;;;;5049013;28;20033;-54
2023/01/26 09:39:35;;;;;;;88.20;18.07;;;1.60;99.90;;;;;;5049045;28;20041;-56
2023/01/26 09:42:34;;;;;;;77.97;20.00;;;1.60;99.90;;;;;;5048968;28;20083;-54
2023/01/26 09:45:11;;;;;;;140.05;23.83;;;1.70;99.90;;;;;;5048454;28;20037;-58
2023/01/26 09:47:58;;;;;;;73.20;19.02;;;1.80;99.90;;;;;;5048772;28;20048;-52
2023/01/26 09:50:33;;;;;;;97.78;18.17;;;1.90;99.90;;;;;;5049836;28;20048;-58
2023/01/26 09:53:05;;;;;;;123.20;15.93;;;2.10;99.90;;;;;;5047881;28;20044;-54
2023/01/26 09:55:31;;;;;;;75.10;15.82;;;2.20;99.90;;;;;;5048384;28;20041;-53
2023/01/26 09:58:04;;;;;;;60.30;13.57;;;2.50;99.90;;;;;;5047196;28;20087;-57
2023/01/26 10:00:48;;;;;;;114.75;13.77;;;2.70;99.90;;;;;;5048143;28;20094;-54
2023/01/26 10:03:41;;;;;;;79.90;13.20;;;3.00;99.90;;;;;;5044705;28;20041;-56
2023/01/26 10:06:30;;;;;;;30.27;11.18;;;3.50;99.90;;;;;;5043788;28;20033;-54
2023/01/26 10:09:01;;;;;;;29.27;10.93;;;3.80;99.90;;;;;;5030377;28;20483;-56
2023/01/26 10:11:32;;;;;;;42.15;10.32;;;4.20;99.90;;;;;;5047951;28;20119;-57
2023/01/26 10:14:20;;;;;;;26.92;10.38;;;4.50;99.90;;;;;;5052533;28;20059;-53
2023/01/26 10:16:49;;;;;;;76.43;11.68;;;4.80;99.90;;;;;;5053204;28;20041;-54
2023/01/26 10:19:35;;;;;;;41.63;11.25;;;5.00;99.90;;;;;;5053193;28;20049;-56
2023/01/26 10:22:10;;;;;;;25.23;10.83;;;5.10;99.90;;;;;;5052235;28;20070;-56
2023/01/26 10:24:36;;;;;;;110.78;13.38;;;5.10;99.90;;;;;;5051049;28;20040;-54
2023/01/26 10:27:01;;;;;;;67.90;10.95;;;5.30;99.90;;;;;;5051795;28;20033;-57
2023/01/26 10:29:27;;;;;;;89.38;11.63;;;5.50;99.90;;;;;;5052225;28;20055;-57
2023/01/26 10:31:54;;;;;;;20.27;7.03;;;5.80;99.90;;;;;;5051781;28;20040;-58
2023/01/26 10:34:23;;;;;;;;;;;6.10;99.90;;;;;;5052243;28;20073;-57
2023/01/26 10:36:49;;;;;;;18.33;8.93;;;6.20;99.90;;;;;;5052863;28;19927;-55
2023/01/26 10:39:16;;;;;;;23.93;7.97;;;6.20;99.90;;;;;;5052363;28;20041;-54
2023/01/26 10:42:01;;;;;;;14.73;6.82;;;6.30;99.90;;;;;;5052778;28;20036;-54
2023/01/26 10:44:35;;;;;;;15.93;7.75;;;6.40;99.90;;;;;;5051586;28;20033;-53
2023/01/26 10:47:04;;;;;;;18.85;8.52;;;6.80;99.90;;;;;;5051783;28;20041;-55
2023/01/26 10:49:29;;;;;;;17.88;7.95;;;7.30;99.90;;;;;;5052334;28;20430;-52
2023/01/26 10:52:27;;;;;;;20.03;9.70;;;7.80;99.90;;;;;;5052606;28;20158;-55
2023/01/26 10:55:18;;;;;;;21.00;8.35;;;8.60;99.90;;;;;;5028529;28;20571;-52
2023/01/26 10:57:44;;;;;;;17.20;7.35;;;9.30;99.90;;;;;;5029529;28;20120;-54
2023/01/26 11:00:27;;;;;;;41.17;7.10;;;9.90;99.90;;;;;;5029483;28;20221;-56
2023/01/26 11:03:13;;;;;;;24.08;7.22;;;10.40;99.90;;;;;;5029202;28;20566;-57
2023/01/26 11:05:38;;;;;;;23.67;7.35;;;11.00;99.90;;;;;;5029284;28;20041;-57
2023/01/26 11:08:35;;;;;;;26.20;5.50;;;11.50;99.90;;;;;;5029417;28;20045;-59
2023/01/26 11:11:02;;;;;;;22.83;5.18;;;12.00;99.90;;;;;;5009250;28;20112;-56
2023/01/26 11:13:28;;;;;;;24.15;5.45;;;12.50;99.90;;;;;;5010641;28;20061;-58
2023/01/26 11:16:03;;;;;;;21.15;4.75;;;12.70;99.90;;;;;;5029827;28;20037;-57
2023/01/26 11:18:34;;;;;;;24.50;5.15;;;13.10;99.90;;;;;;5028572;28;20053;-55
2023/01/26 11:21:26;;;;;;;32.67;8.00;;;13.30;99.90;;;;;;5028377;28;20049;-57
2023/01/26 11:24:03;;;;;;;20.50;4.88;;;13.50;99.90;;;;;;5027904;28;20041;-57
2023/01/26 11:26:47;;;;;;;;;;;13.60;99.90;;;;;;5029605;28;20451;-57
2023/01/26 11:29:33;;;;;;;18.83;4.10;;;13.80;99.90;;;;;;5029074;28;19921;-54
2023/01/26 11:32:02;;;;;;;18.70;4.28;;;14.10;99.90;;;;;;5031900;28;20549;-57
2023/01/26 11:34:27;;;;;;;20.27;4.43;;;14.50;99.90;;;;;;5040894;28;20037;-56
2023/01/26 11:37:30;;;;;;;22.07;3.60;;;14.70;99.90;;;;;;5051941;28;20047;-58
2023/01/26 11:40:17;;;;;;;21.35;4.50;;;15.00;99.90;;;;;;5051846;28;20041;-57
2023/01/26 11:43:03;;;;;;;12.50;2.75;;;15.40;99.90;;;;;;5051852;28;20125;-54
2023/01/26 11:45:43;;;;;;;27.30;4.55;;;15.60;99.90;;;;;;5051267;28;20044;-59
2023/01/26 11:48:39;;;;;;;18.10;4.82;;;15.90;99.90;;;;;;5031969;28;20052;-59
2023/01/26 11:51:27;;;;;;;23.73;4.50;;;16.00;99.90;;;;;;5031521;28;20037;-58
2023/01/26 11:53:57;;;;;;;16.88;3.70;;;16.20;99.90;;;;;;5030741;28;20106;-57
2023/01/26 11:56:44;;;;;;;19.88;4.47;;;16.30;99.90;;;;;;5031825;28;20205;-58
2023/01/26 11:59:35;;;;;;;23.08;3.88;;;16.30;99.90;;;;;;5030030;28;20041;-59
2023/01/26 12:02:31;;;;;;;20.38;4.75;;;16.30;99.90;;;;;;5030534;28;20120;-56
2023/01/26 12:05:11;;;;;;;16.02;3.05;;;16.50;99.90;;;;;;5031104;28;20400;-57
2023/01/26 12:08:11;;;;;;;15.57;3.08;;;16.80;99.90;;;;;;5030615;28;20066;-57
2023/01/26 12:10:47;;;;;;;14.10;3.65;;;16.80;99.90;;;;;;5031379;28;20076;-58
2023/01/26 12:13:39;;;;;;;21.57;3.10;;;16.70;99.90;;;;;;5030232;28;20406;-57
2023/01/26 12:16:22;;;;;;;21.50;2.92;;;17.00;99.90;;;;;;5031334;28;20037;-57
2023/01/26 12:19:09;;;;;;;16.88;3.15;;;16.90;99.90;;;;;;5031752;28;20065;-58
2023/01/26 12:21:37;;;;;;;15.93;3.13;;;17.10;99.90;;;;;;5047183;28;20087;-58
2023/01/26 12:24:04;;;;;;;17.08;2.50;;;17.10;99.90;;;;;;5048593;28;20036;-59
2023/01/26 12:26:41;;;;;;;16.85;3.10;;;17.20;99.90;;;;;;5050816;28;20108;-58
2023/01/26 12:29:20;;;;;;;17.27;1.90;;;17.30;99.80;;;;;;5046130;28;20064;-60
2023/01/26 12:32:02;;;;;;;18.75;3.30;;;17.50;99.90;;;;;;5045585;28;20575;-58
2023/01/26 12:34:31;;;;;;;17.30;3.03;;;17.50;99.80;;;;;;5049560;28;20073;-56
2023/01/26 12:37:02;;;;;;;16.10;3.35;;;17.00;99.80;;;;;;5045434;28;20036;-57
2023/01/26 12:39:45;;;;;;;21.65;2.60;;;16.40;99.70;;;;;;5045258;28;20040;-60
2023/01/26 12:42:13;;;;;;;19.50;4.13;;;15.60;99.30;;;;;;5045444;28;20033;-56
2023/01/26 12:44:40;;;;;;;24.23;3.58;;;14.70;99.90;;;;;;5044975;28;20033;-57
2023/01/26 12:47:12;;;;;;;23.13;2.95;;;14.00;99.90;;;;;;5046082;28;20118;-57
2023/01/26 12:49:47;;;;;;;16.58;2.35;;;13.30;99.90;;;;;;5045583;28;20033;-57
2023/01/26 12:52:54;;;;;;;21.85;4.82;;;12.70;99.90;;;;;;5044903;28;20469;-58
2023/01/26 12:55:31;;;;;;;20.45;3.35;;;12.20;99.90;;;;;;5027253;28;20045;-58
2023/01/26 12:58:03;;;;;;;20.10;4.78;;;11.70;99.90;;;;;;5045321;28;20387;-58
2023/01/26 13:00:32;;;;;;;16.33;3.35;;;11.40;99.90;;;;;;5045344;28;20048;-57
2023/01/26 13:03:02;;;;;;;20.20;3.03;;;11.20;99.90;;;;;;5044739;28;20049;-55
2023/01/26 13:05:32;;;;;;;16.58;2.55;;;11.00;99.90;;;;;;5045460;28;20083;-58
2023/01/26 13:08:18;;;;;;;23.85;4.15;;;10.90;99.90;;;;;;5043833;28;20033;-58
2023/01/26 13:10:48;;;;;;;19.88;2.03;;;10.70;99.90;;;;;;5043133;28;20057;-57
2023/01/26 13:13:16;;;;;;;13.15;2.42;;;10.50;99.90;;;;;;5044245;28;20044;-56
2023/01/26 13:15:42;;;;;;;18.60;2.10;;;10.30;99.90;;;;;;5045555;28;20065;-57
2023/01/26 13:18:15;;;;;;;12.53;1.40;;;10.10;99.90;;;;;;5044460;28;20100;-57
2023/01/26 13:20:46;;;;;;;14.52;1.75;;;9.80;99.90;;;;;;5045209;28;20048;-55
2023/01/26 13:23:41;;;;;;;16.67;2.00;;;9.70;99.90;;;;;;5044204;28;20295;-58
2023/01/26 13:26:10;;;;;;;18.73;1.85;;;9.60;99.90;;;;;;5034686;28;20041;-56
2023/01/26 13:28:35;;;;;;;10.57;1.63;;;9.50;99.90;;;;;;5044944;28;20106;-55
2023/01/26 13:31:05;;;;;;;14.10;1.17;;;9.50;99.90;;;;;;5040217;28;20053;-57
2023/01/26 13:33:31;;;;;;;10.00;2.00;;;9.40;99.90;;;;;;5041501;28;20029;-57
2023/01/26 13:36:01;;;;;;;16.33;1.97;;;9.40;99.90;;;;;;5043198;28;20043;-58
2023/01/26 13:38:37;;;;;;;15.30;1.90;;;9.50;99.90;;;;;;5058389;28;20037;-57
2023/01/26 13:41:16;;;;;;;17.45;1.60;;;9.90;99.90;;;;;;5043625;28;20049;-57
2023/01/26 13:44:12;;;;;;;12.57;1.02;;;10.50;99.90;;;;;;5043177;28;20098;-56